sensor_id;sensor_type;location;lat;lon;timestamp;P1;durP1;ratioP1;P2;durP2;ratioP2
30020;SDS011;16861;52.294;7.760;2023-09-19T00:00:46;5.97;;;2.22;;
30020;SDS011;16861;52.294;7.760;2023-09-19T00:03:14;9.43;;;2.35;;
30020;SDS011;16861;52.294;7.760;2023-09-19T00:05:41;8.40;;;2.47;;
30020;SDS011;16861;52.294;7.760;2023-09-19T00:08:12;12.90;;;2.90;;
30020;SDS011;16861;52.294;7.760;2023-09-19T00:10:42;6.50;;;2.30;;
30020;SDS011;16861;52.294;7.760;2023-09-19T00:13:09;6.20;;;2.00;;
30020;SDS011;16861;52.294;7.760;2023-09-19T00:15:41;11.10;;;2.80;;
30020;SDS011;16861;52.294;7.760;2023-09-19T00:18:17;9.57;;;2.20;;
30020;SDS011;16861;52.294;7.760;2023-09-19T00:20:46;8.20;;;2.63;;
30020;SDS011;16861;52.294;7.760;2023-09-19T00:23:18;10.00;;;2.30;;
30020;SDS011;16861;52.294;7.760;2023-09-19T00:25:46;7.88;;;2.35;;
30020;SDS011;16861;52.294;7.760;2023-09-19T00:28:12;10.20;;;2.85;;
30020;SDS011;16861;52.294;7.760;2023-09-19T00:30:42;9.05;;;2.67;;
30020;SDS011;16861;52.294;7.760;2023-09-19T00:33:10;12.15;;;3.10;;
30020;SDS011;16861;52.294;7.760;2023-09-19T00:38:14;8.70;;;3.10;;
30020;SDS011;16861;52.294;7.760;2023-09-19T00:40:47;12.40;;;3.00;;
30020;SDS011;16861;52.294;7.760;2023-09-19T00:43:14;8.60;;;2.95;;
30020;SDS011;16861;52.294;7.760;2023-09-19T00:45:44;11.77;;;3.00;;
30020;SDS011;16861;52.294;7.760;2023-09-19T00:48:15;8.35;;;2.50;;
30020;SDS011;16861;52.294;7.760;2023-09-19T00:50:43;9.20;;;2.33;;
30020;SDS011;16861;52.294;7.760;2023-09-19T00:53:18;8.65;;;2.58;;
30020;SDS011;16861;52.294;7.760;2023-09-19T00:55:47;7.25;;;2.35;;
30020;SDS011;16861;52.294;7.760;2023-09-19T00:58:16;10.13;;;2.83;;
30020;SDS011;16861;52.294;7.760;2023-09-19T01:00:44;9.30;;;2.55;;
30020;SDS011;16861;52.294;7.760;2023-09-19T01:03:11;12.10;;;2.63;;
30020;SDS011;16861;52.294;7.760;2023-09-19T01:05:39;9.63;;;2.47;;
30020;SDS011;16861;52.294;7.760;2023-09-19T01:08:06;15.18;;;2.95;;
30020;SDS011;16861;52.294;7.760;2023-09-19T01:10:33;5.88;;;2.50;;
30020;SDS011;16861;52.294;7.760;2023-09-19T01:15:54;12.55;;;2.92;;
30020;SDS011;16861;52.294;7.760;2023-09-19T01:21:20;8.73;;;2.55;;
30020;SDS011;16861;52.294;7.760;2023-09-19T01:32:17;12.05;;;2.50;;
30020;SDS011;16861;52.294;7.760;2023-09-19T01:34:50;9.10;;;2.90;;
30020;SDS011;16861;52.294;7.760;2023-09-19T01:37:20;11.32;;;2.70;;
30020;SDS011;16861;52.294;7.760;2023-09-19T01:40:14;11.07;;;2.85;;
30020;SDS011;16861;52.294;7.760;2023-09-19T01:51:20;12.05;;;2.90;;
30020;SDS011;16861;52.294;7.760;2023-09-19T01:54:01;10.40;;;2.63;;
30020;SDS011;16861;52.294;7.760;2023-09-19T01:56:47;9.40;;;2.72;;
30020;SDS011;16861;52.294;7.760;2023-09-19T01:59:18;11.82;;;2.75;;
30020;SDS011;16861;52.294;7.760;2023-09-19T02:01:51;11.05;;;3.20;;
30020;SDS011;16861;52.294;7.760;2023-09-19T02:04:19;9.10;;;2.50;;
30020;SDS011;16861;52.294;7.760;2023-09-19T02:06:46;11.25;;;2.72;;
30020;SDS011;16861;52.294;7.760;2023-09-19T02:09:14;14.68;;;2.88;;
30020;SDS011;16861;52.294;7.760;2023-09-19T02:11:41;8.77;;;2.72;;
30020;SDS011;16861;52.294;7.760;2023-09-19T02:14:08;9.98;;;2.42;;
30020;SDS011;16861;52.294;7.760;2023-09-19T02:16:35;11.35;;;2.47;;
30020;SDS011;16861;52.294;7.760;2023-09-19T02:19:02;8.13;;;2.40;;
30020;SDS011;16861;52.294;7.760;2023-09-19T02:21:32;11.40;;;2.78;;
30020;SDS011;16861;52.294;7.760;2023-09-19T02:23:58;11.50;;;2.38;;
30020;SDS011;16861;52.294;7.760;2023-09-19T02:26:25;10.35;;;2.88;;
30020;SDS011;16861;52.294;7.760;2023-09-19T02:28:53;10.63;;;2.67;;
30020;SDS011;16861;52.294;7.760;2023-09-19T02:31:20;9.27;;;2.65;;
30020;SDS011;16861;52.294;7.760;2023-09-19T02:33:46;7.93;;;2.70;;
30020;SDS011;16861;52.294;7.760;2023-09-19T02:36:13;11.30;;;2.58;;
30020;SDS011;16861;52.294;7.760;2023-09-19T02:38:43;10.07;;;2.63;;
30020;SDS011;16861;52.294;7.760;2023-09-19T02:41:10;9.05;;;2.60;;
30020;SDS011;16861;52.294;7.760;2023-09-19T02:43:36;8.52;;;2.45;;
30020;SDS011;16861;52.294;7.760;2023-09-19T02:46:03;11.45;;;2.53;;
30020;SDS011;16861;52.294;7.760;2023-09-19T02:48:30;13.27;;;3.25;;
30020;SDS011;16861;52.294;7.760;2023-09-19T02:50:58;13.32;;;2.83;;
30020;SDS011;16861;52.294;7.760;2023-09-19T02:53:24;8.43;;;2.38;;
30020;SDS011;16861;52.294;7.760;2023-09-19T02:55:51;12.70;;;3.13;;
30020;SDS011;16861;52.294;7.760;2023-09-19T02:58:18;8.95;;;2.30;;
30020;SDS011;16861;52.294;7.760;2023-09-19T03:00:45;8.68;;;2.47;;
30020;SDS011;16861;52.294;7.760;2023-09-19T03:03:15;11.38;;;2.85;;
30020;SDS011;16861;52.294;7.760;2023-09-19T03:05:43;11.13;;;2.63;;
30020;SDS011;16861;52.294;7.760;2023-09-19T03:08:15;13.55;;;3.28;;
30020;SDS011;16861;52.294;7.760;2023-09-19T03:10:45;12.50;;;2.40;;
30020;SDS011;16861;52.294;7.760;2023-09-19T03:13:13;11.05;;;2.63;;
30020;SDS011;16861;52.294;7.760;2023-09-19T03:15:41;12.02;;;2.85;;
30020;SDS011;16861;52.294;7.760;2023-09-19T03:18:10;9.23;;;2.83;;
30020;SDS011;16861;52.294;7.760;2023-09-19T03:20:37;11.75;;;2.88;;
30020;SDS011;16861;52.294;7.760;2023-09-19T03:23:04;12.35;;;3.25;;
30020;SDS011;16861;52.294;7.760;2023-09-19T03:25:35;9.52;;;2.47;;
30020;SDS011;16861;52.294;7.760;2023-09-19T03:28:02;12.13;;;2.67;;
30020;SDS011;16861;52.294;7.760;2023-09-19T03:30:32;10.30;;;2.92;;
30020;SDS011;16861;52.294;7.760;2023-09-19T03:32:59;7.22;;;2.63;;
30020;SDS011;16861;52.294;7.760;2023-09-19T03:35:26;12.43;;;2.97;;
30020;SDS011;16861;52.294;7.760;2023-09-19T03:37:53;12.35;;;3.20;;
30020;SDS011;16861;52.294;7.760;2023-09-19T03:40:20;14.23;;;3.05;;
30020;SDS011;16861;52.294;7.760;2023-09-19T03:42:48;13.93;;;3.08;;
30020;SDS011;16861;52.294;7.760;2023-09-19T03:45:14;9.00;;;3.13;;
30020;SDS011;16861;52.294;7.760;2023-09-19T03:47:42;13.57;;;3.75;;
30020;SDS011;16861;52.294;7.760;2023-09-19T03:50:09;10.63;;;3.00;;
30020;SDS011;16861;52.294;7.760;2023-09-19T03:52:41;16.85;;;3.63;;
30020;SDS011;16861;52.294;7.760;2023-09-19T03:55:08;12.07;;;3.08;;
30020;SDS011;16861;52.294;7.760;2023-09-19T03:57:36;10.55;;;3.20;;
30020;SDS011;16861;52.294;7.760;2023-09-19T04:00:03;13.70;;;3.13;;
30020;SDS011;16861;52.294;7.760;2023-09-19T04:02:40;10.77;;;3.15;;
30020;SDS011;16861;52.294;7.760;2023-09-19T04:05:07;9.75;;;2.65;;
30020;SDS011;16861;52.294;7.760;2023-09-19T04:07:34;11.93;;;2.85;;
30020;SDS011;16861;52.294;7.760;2023-09-19T04:10:01;13.50;;;2.85;;
30020;SDS011;16861;52.294;7.760;2023-09-19T04:12:27;10.90;;;3.03;;
30020;SDS011;16861;52.294;7.760;2023-09-19T04:14:54;13.90;;;3.15;;
30020;SDS011;16861;52.294;7.760;2023-09-19T04:17:20;12.40;;;3.28;;
30020;SDS011;16861;52.294;7.760;2023-09-19T04:19:47;9.63;;;3.22;;
30020;SDS011;16861;52.294;7.760;2023-09-19T04:22:14;14.27;;;2.88;;
30020;SDS011;16861;52.294;7.760;2023-09-19T04:24:40;14.02;;;3.10;;
30020;SDS011;16861;52.294;7.760;2023-09-19T04:27:07;8.93;;;2.60;;
30020;SDS011;16861;52.294;7.760;2023-09-19T04:29:33;7.57;;;2.67;;
30020;SDS011;16861;52.294;7.760;2023-09-19T04:32:00;12.68;;;2.55;;
30020;SDS011;16861;52.294;7.760;2023-09-19T04:34:26;13.45;;;2.83;;
30020;SDS011;16861;52.294;7.760;2023-09-19T04:36:53;11.13;;;2.67;;
30020;SDS011;16861;52.294;7.760;2023-09-19T04:39:20;9.18;;;2.33;;
30020;SDS011;16861;52.294;7.760;2023-09-19T04:41:47;9.95;;;2.50;;
30020;SDS011;16861;52.294;7.760;2023-09-19T04:44:14;12.30;;;2.80;;
30020;SDS011;16861;52.294;7.760;2023-09-19T04:46:42;11.85;;;3.03;;
30020;SDS011;16861;52.294;7.760;2023-09-19T04:49:08;10.70;;;2.55;;
30020;SDS011;16861;52.294;7.760;2023-09-19T04:51:35;15.90;;;3.25;;
30020;SDS011;16861;52.294;7.760;2023-09-19T04:54:02;12.80;;;3.10;;
30020;SDS011;16861;52.294;7.760;2023-09-19T04:56:30;7.97;;;2.65;;
30020;SDS011;16861;52.294;7.760;2023-09-19T04:58:56;9.77;;;2.97;;
30020;SDS011;16861;52.294;7.760;2023-09-19T05:01:24;8.20;;;2.53;;
30020;SDS011;16861;52.294;7.760;2023-09-19T05:03:51;13.82;;;2.95;;
30020;SDS011;16861;52.294;7.760;2023-09-19T05:06:20;10.73;;;2.83;;
30020;SDS011;16861;52.294;7.760;2023-09-19T05:08:47;13.25;;;3.13;;
30020;SDS011;16861;52.294;7.760;2023-09-19T05:11:18;12.10;;;3.15;;
30020;SDS011;16861;52.294;7.760;2023-09-19T05:13:46;13.90;;;2.65;;
30020;SDS011;16861;52.294;7.760;2023-09-19T05:16:12;11.93;;;2.47;;
30020;SDS011;16861;52.294;7.760;2023-09-19T05:18:39;8.63;;;2.88;;
30020;SDS011;16861;52.294;7.760;2023-09-19T05:21:05;9.23;;;2.70;;
30020;SDS011;16861;52.294;7.760;2023-09-19T05:23:32;13.80;;;2.92;;
30020;SDS011;16861;52.294;7.760;2023-09-19T05:25:58;9.90;;;2.55;;
30020;SDS011;16861;52.294;7.760;2023-09-19T05:28:26;9.57;;;2.60;;
30020;SDS011;16861;52.294;7.760;2023-09-19T05:30:53;9.13;;;2.28;;
30020;SDS011;16861;52.294;7.760;2023-09-19T05:33:19;11.90;;;2.60;;
30020;SDS011;16861;52.294;7.760;2023-09-19T05:35:49;11.00;;;2.83;;
30020;SDS011;16861;52.294;7.760;2023-09-19T05:38:16;13.18;;;2.90;;
30020;SDS011;16861;52.294;7.760;2023-09-19T05:40:45;9.85;;;2.53;;
30020;SDS011;16861;52.294;7.760;2023-09-19T05:43:13;12.23;;;2.35;;
30020;SDS011;16861;52.294;7.760;2023-09-19T05:45:40;17.13;;;2.60;;
30020;SDS011;16861;52.294;7.760;2023-09-19T05:48:16;10.48;;;3.25;;
30020;SDS011;16861;52.294;7.760;2023-09-19T05:50:43;10.73;;;2.53;;
30020;SDS011;16861;52.294;7.760;2023-09-19T05:53:13;11.65;;;2.40;;
30020;SDS011;16861;52.294;7.760;2023-09-19T05:55:41;12.45;;;2.72;;
30020;SDS011;16861;52.294;7.760;2023-09-19T05:58:08;8.35;;;2.63;;
30020;SDS011;16861;52.294;7.760;2023-09-19T06:00:36;8.77;;;2.75;;
30020;SDS011;16861;52.294;7.760;2023-09-19T06:03:05;8.48;;;2.25;;
30020;SDS011;16861;52.294;7.760;2023-09-19T06:05:32;9.32;;;2.42;;
30020;SDS011;16861;52.294;7.760;2023-09-19T06:07:59;11.75;;;2.55;;
30020;SDS011;16861;52.294;7.760;2023-09-19T06:10:30;9.40;;;2.40;;
30020;SDS011;16861;52.294;7.760;2023-09-19T06:12:58;9.00;;;2.35;;
30020;SDS011;16861;52.294;7.760;2023-09-19T06:15:25;11.43;;;2.45;;
30020;SDS011;16861;52.294;7.760;2023-09-19T06:17:52;13.65;;;2.30;;
30020;SDS011;16861;52.294;7.760;2023-09-19T06:20:25;14.40;;;2.80;;
30020;SDS011;16861;52.294;7.760;2023-09-19T06:22:53;12.50;;;2.58;;
30020;SDS011;16861;52.294;7.760;2023-09-19T06:25:21;13.48;;;2.70;;
30020;SDS011;16861;52.294;7.760;2023-09-19T06:27:49;6.20;;;1.95;;
30020;SDS011;16861;52.294;7.760;2023-09-19T06:30:21;8.52;;;2.60;;
30020;SDS011;16861;52.294;7.760;2023-09-19T06:32:59;10.18;;;2.22;;
30020;SDS011;16861;52.294;7.760;2023-09-19T06:35:28;9.80;;;2.70;;
30020;SDS011;16861;52.294;7.760;2023-09-19T06:37:56;11.00;;;2.50;;
30020;SDS011;16861;52.294;7.760;2023-09-19T06:40:24;10.82;;;2.53;;
30020;SDS011;16861;52.294;7.760;2023-09-19T06:42:51;10.20;;;2.70;;
30020;SDS011;16861;52.294;7.760;2023-09-19T06:45:22;9.50;;;2.40;;
30020;SDS011;16861;52.294;7.760;2023-09-19T06:47:49;10.52;;;2.50;;
30020;SDS011;16861;52.294;7.760;2023-09-19T06:50:19;10.40;;;2.47;;
30020;SDS011;16861;52.294;7.760;2023-09-19T06:52:49;8.60;;;2.28;;
30020;SDS011;16861;52.294;7.760;2023-09-19T06:55:18;16.77;;;2.65;;
30020;SDS011;16861;52.294;7.760;2023-09-19T06:57:46;9.93;;;2.50;;
30020;SDS011;16861;52.294;7.760;2023-09-19T07:00:14;11.55;;;2.45;;
30020;SDS011;16861;52.294;7.760;2023-09-19T07:02:42;10.75;;;2.63;;
30020;SDS011;16861;52.294;7.760;2023-09-19T07:05:08;10.07;;;2.63;;
30020;SDS011;16861;52.294;7.760;2023-09-19T07:07:35;8.90;;;2.20;;
30020;SDS011;16861;52.294;7.760;2023-09-19T07:10:03;9.77;;;2.42;;
30020;SDS011;16861;52.294;7.760;2023-09-19T07:12:31;8.25;;;2.38;;
30020;SDS011;16861;52.294;7.760;2023-09-19T07:14:59;11.23;;;3.20;;
30020;SDS011;16861;52.294;7.760;2023-09-19T07:17:25;6.93;;;2.33;;
30020;SDS011;16861;52.294;7.760;2023-09-19T07:19:52;12.75;;;2.35;;
30020;SDS011;16861;52.294;7.760;2023-09-19T07:22:18;10.63;;;2.03;;
30020;SDS011;16861;52.294;7.760;2023-09-19T07:24:45;11.65;;;2.58;;
30020;SDS011;16861;52.294;7.760;2023-09-19T07:27:11;13.43;;;2.53;;
30020;SDS011;16861;52.294;7.760;2023-09-19T07:29:38;8.30;;;2.33;;
30020;SDS011;16861;52.294;7.760;2023-09-19T07:32:05;6.78;;;2.17;;
30020;SDS011;16861;52.294;7.760;2023-09-19T07:34:33;6.20;;;1.95;;
30020;SDS011;16861;52.294;7.760;2023-09-19T07:37:00;8.98;;;2.40;;
30020;SDS011;16861;52.294;7.760;2023-09-19T07:39:26;7.53;;;1.75;;
30020;SDS011;16861;52.294;7.760;2023-09-19T07:41:52;7.28;;;2.08;;
30020;SDS011;16861;52.294;7.760;2023-09-19T07:44:20;10.52;;;2.30;;
30020;SDS011;16861;52.294;7.760;2023-09-19T07:46:47;7.93;;;2.25;;
30020;SDS011;16861;52.294;7.760;2023-09-19T07:49:17;8.93;;;2.20;;
30020;SDS011;16861;52.294;7.760;2023-09-19T07:51:44;10.77;;;2.80;;
30020;SDS011;16861;52.294;7.760;2023-09-19T07:54:13;10.07;;;2.90;;
30020;SDS011;16861;52.294;7.760;2023-09-19T07:56:40;8.90;;;2.47;;
30020;SDS011;16861;52.294;7.760;2023-09-19T07:59:07;11.52;;;2.63;;
30020;SDS011;16861;52.294;7.760;2023-09-19T08:01:34;10.15;;;2.65;;
30020;SDS011;16861;52.294;7.760;2023-09-19T08:04:02;6.22;;;1.80;;
30020;SDS011;16861;52.294;7.760;2023-09-19T08:06:28;7.60;;;2.40;;
30020;SDS011;16861;52.294;7.760;2023-09-19T08:08:56;10.93;;;2.70;;
30020;SDS011;16861;52.294;7.760;2023-09-19T08:11:23;10.95;;;2.13;;
30020;SDS011;16861;52.294;7.760;2023-09-19T08:13:50;7.95;;;2.58;;
30020;SDS011;16861;52.294;7.760;2023-09-19T08:16:17;7.53;;;2.50;;
30020;SDS011;16861;52.294;7.760;2023-09-19T08:18:49;9.40;;;2.42;;
30020;SDS011;16861;52.294;7.760;2023-09-19T08:21:19;10.23;;;2.83;;
30020;SDS011;16861;52.294;7.760;2023-09-19T08:23:45;9.70;;;2.42;;
30020;SDS011;16861;52.294;7.760;2023-09-19T08:26:12;11.43;;;2.72;;
30020;SDS011;16861;52.294;7.760;2023-09-19T08:28:38;7.85;;;2.40;;
30020;SDS011;16861;52.294;7.760;2023-09-19T08:31:08;9.05;;;2.55;;
30020;SDS011;16861;52.294;7.760;2023-09-19T08:33:36;10.60;;;2.42;;
30020;SDS011;16861;52.294;7.760;2023-09-19T08:36:04;11.63;;;2.55;;
30020;SDS011;16861;52.294;7.760;2023-09-19T08:38:31;8.20;;;2.60;;
30020;SDS011;16861;52.294;7.760;2023-09-19T08:40:59;13.23;;;3.28;;
30020;SDS011;16861;52.294;7.760;2023-09-19T08:43:26;9.88;;;2.92;;
30020;SDS011;16861;52.294;7.760;2023-09-19T08:46:06;11.98;;;2.50;;
30020;SDS011;16861;52.294;7.760;2023-09-19T08:49:02;7.95;;;2.53;;
30020;SDS011;16861;52.294;7.760;2023-09-19T08:51:42;12.02;;;2.83;;
30020;SDS011;16861;52.294;7.760;2023-09-19T08:54:16;9.38;;;2.65;;
30020;SDS011;16861;52.294;7.760;2023-09-19T08:56:53;8.57;;;2.17;;
30020;SDS011;16861;52.294;7.760;2023-09-19T08:59:21;8.40;;;2.40;;
30020;SDS011;16861;52.294;7.760;2023-09-19T09:01:53;9.85;;;2.72;;
30020;SDS011;16861;52.294;7.760;2023-09-19T09:04:22;13.18;;;3.17;;
30020;SDS011;16861;52.294;7.760;2023-09-19T09:06:49;11.45;;;3.03;;
30020;SDS011;16861;52.294;7.760;2023-09-19T09:09:19;8.40;;;2.67;;
30020;SDS011;16861;52.294;7.760;2023-09-19T09:11:48;11.55;;;2.83;;
30020;SDS011;16861;52.294;7.760;2023-09-19T09:14:17;10.43;;;3.08;;
30020;SDS011;16861;52.294;7.760;2023-09-19T09:16:44;10.10;;;2.13;;
30020;SDS011;16861;52.294;7.760;2023-09-19T09:19:11;9.85;;;2.63;;
30020;SDS011;16861;52.294;7.760;2023-09-19T09:21:40;7.38;;;2.22;;
30020;SDS011;16861;52.294;7.760;2023-09-19T09:26:56;11.10;;;3.03;;
30020;SDS011;16861;52.294;7.760;2023-09-19T09:32:43;9.35;;;2.80;;
30020;SDS011;16861;52.294;7.760;2023-09-19T09:35:08;15.50;;;2.95;;
30020;SDS011;16861;52.294;7.760;2023-09-19T09:37:40;10.35;;;2.95;;
30020;SDS011;16861;52.294;7.760;2023-09-19T09:40:09;9.43;;;3.30;;
30020;SDS011;16861;52.294;7.760;2023-09-19T09:42:39;12.02;;;2.55;;
30020;SDS011;16861;52.294;7.760;2023-09-19T09:47:42;9.13;;;2.72;;
30020;SDS011;16861;52.294;7.760;2023-09-19T09:53:20;7.55;;;2.47;;
30020;SDS011;16861;52.294;7.760;2023-09-19T09:58:50;9.40;;;3.08;;
30020;SDS011;16861;52.294;7.760;2023-09-19T10:01:22;10.52;;;2.53;;
30020;SDS011;16861;52.294;7.760;2023-09-19T10:03:59;10.90;;;2.83;;
30020;SDS011;16861;52.294;7.760;2023-09-19T10:06:27;11.15;;;2.55;;
30020;SDS011;16861;52.294;7.760;2023-09-19T10:09:13;6.13;;;2.22;;
30020;SDS011;16861;52.294;7.760;2023-09-19T10:11:46;8.03;;;2.20;;
30020;SDS011;16861;52.294;7.760;2023-09-19T10:14:24;13.55;;;2.65;;
30020;SDS011;16861;52.294;7.760;2023-09-19T10:16:56;8.13;;;2.42;;
30020;SDS011;16861;52.294;7.760;2023-09-19T10:19:30;9.77;;;2.80;;
30020;SDS011;16861;52.294;7.760;2023-09-19T10:22:04;10.25;;;2.78;;
30020;SDS011;16861;52.294;7.760;2023-09-19T10:24:33;9.65;;;2.63;;
30020;SDS011;16861;52.294;7.760;2023-09-19T10:27:14;10.73;;;3.27;;
30020;SDS011;16861;52.294;7.760;2023-09-19T10:29:45;7.32;;;2.80;;
30020;SDS011;16861;52.294;7.760;2023-09-19T10:32:17;8.50;;;2.40;;
30020;SDS011;16861;52.294;7.760;2023-09-19T10:34:48;11.02;;;2.72;;
30020;SDS011;16861;52.294;7.760;2023-09-19T10:37:18;10.45;;;2.63;;
30020;SDS011;16861;52.294;7.760;2023-09-19T10:42:16;10.55;;;2.25;;
30020;SDS011;16861;52.294;7.760;2023-09-19T10:44:50;7.30;;;2.42;;
30020;SDS011;16861;52.294;7.760;2023-09-19T10:47:21;8.98;;;2.78;;
30020;SDS011;16861;52.294;7.760;2023-09-19T10:49:50;13.55;;;2.83;;
30020;SDS011;16861;52.294;7.760;2023-09-19T10:52:19;9.38;;;2.80;;
30020;SDS011;16861;52.294;7.760;2023-09-19T10:54:50;11.88;;;2.85;;
30020;SDS011;16861;52.294;7.760;2023-09-19T10:57:24;12.90;;;2.95;;
30020;SDS011;16861;52.294;7.760;2023-09-19T11:00:03;10.02;;;2.80;;
30020;SDS011;16861;52.294;7.760;2023-09-19T11:06:01;10.63;;;2.90;;
30020;SDS011;16861;52.294;7.760;2023-09-19T11:08:50;9.10;;;2.67;;
30020;SDS011;16861;52.294;7.760;2023-09-19T11:11:39;13.88;;;2.97;;
30020;SDS011;16861;52.294;7.760;2023-09-19T11:30:45;10.50;;;2.58;;
30020;SDS011;16861;52.294;7.760;2023-09-19T11:33:16;7.75;;;2.90;;
30020;SDS011;16861;52.294;7.760;2023-09-19T11:43:46;11.13;;;3.25;;
30020;SDS011;16861;52.294;7.760;2023-09-19T11:49:18;9.70;;;2.67;;
30020;SDS011;16861;52.294;7.760;2023-09-19T11:51:52;8.10;;;3.00;;
30020;SDS011;16861;52.294;7.760;2023-09-19T11:54:19;8.23;;;2.67;;
30020;SDS011;16861;52.294;7.760;2023-09-19T11:56:51;8.50;;;3.00;;
30020;SDS011;16861;52.294;7.760;2023-09-19T11:59:20;10.25;;;2.80;;
30020;SDS011;16861;52.294;7.760;2023-09-19T12:01:51;9.77;;;2.72;;
30020;SDS011;16861;52.294;7.760;2023-09-19T12:04:37;8.52;;;2.33;;
30020;SDS011;16861;52.294;7.760;2023-09-19T12:07:06;7.07;;;2.40;;
30020;SDS011;16861;52.294;7.760;2023-09-19T12:09:42;6.85;;;2.60;;
30020;SDS011;16861;52.294;7.760;2023-09-19T12:12:19;10.52;;;3.13;;
30020;SDS011;16861;52.294;7.760;2023-09-19T12:14:49;10.10;;;2.72;;
30020;SDS011;16861;52.294;7.760;2023-09-19T12:17:17;5.35;;;2.45;;
30020;SDS011;16861;52.294;7.760;2023-09-19T12:19:51;9.05;;;2.83;;
30020;SDS011;16861;52.294;7.760;2023-09-19T12:22:18;8.45;;;2.70;;
30020;SDS011;16861;52.294;7.760;2023-09-19T12:24:46;6.30;;;2.53;;
30020;SDS011;16861;52.294;7.760;2023-09-19T12:27:14;7.53;;;2.33;;
30020;SDS011;16861;52.294;7.760;2023-09-19T12:29:42;6.85;;;2.55;;
30020;SDS011;16861;52.294;7.760;2023-09-19T12:32:09;9.02;;;3.17;;
30020;SDS011;16861;52.294;7.760;2023-09-19T12:34:36;5.70;;;2.40;;
30020;SDS011;16861;52.294;7.760;2023-09-19T12:37:12;7.93;;;2.45;;
30020;SDS011;16861;52.294;7.760;2023-09-19T12:39:54;6.57;;;2.08;;
30020;SDS011;16861;52.294;7.760;2023-09-19T12:42:41;6.30;;;2.40;;
30020;SDS011;16861;52.294;7.760;2023-09-19T12:45:08;8.15;;;2.67;;
30020;SDS011;16861;52.294;7.760;2023-09-19T12:47:36;10.32;;;2.72;;
30020;SDS011;16861;52.294;7.760;2023-09-19T12:50:07;8.65;;;2.70;;
30020;SDS011;16861;52.294;7.760;2023-09-19T12:52:37;8.63;;;2.47;;
30020;SDS011;16861;52.294;7.760;2023-09-19T12:55:06;8.52;;;2.08;;
30020;SDS011;16861;52.294;7.760;2023-09-19T12:57:37;11.85;;;2.67;;
30020;SDS011;16861;52.294;7.760;2023-09-19T13:00:05;6.22;;;2.30;;
30020;SDS011;16861;52.294;7.760;2023-09-19T13:02:33;4.75;;;2.05;;
30020;SDS011;16861;52.294;7.760;2023-09-19T13:05:00;8.02;;;2.40;;
30020;SDS011;16861;52.294;7.760;2023-09-19T13:07:40;7.30;;;2.22;;
30020;SDS011;16861;52.294;7.760;2023-09-19T13:10:11;8.68;;;2.30;;
30020;SDS011;16861;52.294;7.760;2023-09-19T13:12:41;7.00;;;2.42;;
30020;SDS011;16861;52.294;7.760;2023-09-19T13:15:13;13.43;;;2.38;;
30020;SDS011;16861;52.294;7.760;2023-09-19T13:17:47;8.15;;;2.50;;
30020;SDS011;16861;52.294;7.760;2023-09-19T13:20:23;9.98;;;2.28;;
30020;SDS011;16861;52.294;7.760;2023-09-19T13:22:53;6.53;;;2.30;;
30020;SDS011;16861;52.294;7.760;2023-09-19T13:25:25;6.05;;;2.00;;
30020;SDS011;16861;52.294;7.760;2023-09-19T13:27:54;6.65;;;1.95;;
30020;SDS011;16861;52.294;7.760;2023-09-19T13:30:24;7.85;;;2.40;;
30020;SDS011;16861;52.294;7.760;2023-09-19T13:32:52;3.90;;;2.03;;
30020;SDS011;16861;52.294;7.760;2023-09-19T13:35:31;11.55;;;1.95;;
30020;SDS011;16861;52.294;7.760;2023-09-19T13:37:59;10.48;;;2.30;;
30020;SDS011;16861;52.294;7.760;2023-09-19T13:40:27;7.75;;;1.90;;
30020;SDS011;16861;52.294;7.760;2023-09-19T13:42:57;6.05;;;2.45;;
30020;SDS011;16861;52.294;7.760;2023-09-19T13:45:23;5.05;;;1.95;;
30020;SDS011;16861;52.294;7.760;2023-09-19T13:47:50;6.50;;;2.30;;
30020;SDS011;16861;52.294;7.760;2023-09-19T13:50:17;5.50;;;1.80;;
30020;SDS011;16861;52.294;7.760;2023-09-19T13:52:50;10.88;;;2.20;;
30020;SDS011;16861;52.294;7.760;2023-09-19T13:55:20;7.43;;;2.30;;
30020;SDS011;16861;52.294;7.760;2023-09-19T13:57:47;7.93;;;2.17;;
30020;SDS011;16861;52.294;7.760;2023-09-19T14:00:20;10.30;;;2.45;;
30020;SDS011;16861;52.294;7.760;2023-09-19T14:02:48;5.45;;;1.98;;
30020;SDS011;16861;52.294;7.760;2023-09-19T14:05:15;7.60;;;2.25;;
30020;SDS011;16861;52.294;7.760;2023-09-19T14:07:43;7.13;;;2.08;;
30020;SDS011;16861;52.294;7.760;2023-09-19T14:10:10;4.80;;;2.10;;
30020;SDS011;16861;52.294;7.760;2023-09-19T14:12:37;6.00;;;2.25;;
30020;SDS011;16861;52.294;7.760;2023-09-19T14:15:07;8.10;;;2.20;;
30020;SDS011;16861;52.294;7.760;2023-09-19T14:17:34;5.68;;;2.00;;
30020;SDS011;16861;52.294;7.760;2023-09-19T14:20:01;9.38;;;2.50;;
30020;SDS011;16861;52.294;7.760;2023-09-19T14:22:27;7.05;;;2.20;;
30020;SDS011;16861;52.294;7.760;2023-09-19T14:24:54;6.95;;;2.30;;
30020;SDS011;16861;52.294;7.760;2023-09-19T14:27:21;7.80;;;2.22;;
30020;SDS011;16861;52.294;7.760;2023-09-19T14:29:47;3.00;;;1.52;;
30020;SDS011;16861;52.294;7.760;2023-09-19T14:32:13;11.32;;;2.00;;
30020;SDS011;16861;52.294;7.760;2023-09-19T14:34:40;6.82;;;2.00;;
30020;SDS011;16861;52.294;7.760;2023-09-19T14:37:09;7.50;;;1.77;;
30020;SDS011;16861;52.294;7.760;2023-09-19T14:39:37;9.43;;;2.30;;
30020;SDS011;16861;52.294;7.760;2023-09-19T14:42:06;6.07;;;2.05;;
30020;SDS011;16861;52.294;7.760;2023-09-19T14:44:36;5.28;;;2.05;;
30020;SDS011;16861;52.294;7.760;2023-09-19T14:47:03;6.13;;;2.08;;
30020;SDS011;16861;52.294;7.760;2023-09-19T14:49:34;7.13;;;2.55;;
30020;SDS011;16861;52.294;7.760;2023-09-19T14:52:01;5.68;;;1.88;;
30020;SDS011;16861;52.294;7.760;2023-09-19T14:54:30;5.32;;;2.13;;
30020;SDS011;16861;52.294;7.760;2023-09-19T14:56:57;5.57;;;1.95;;
30020;SDS011;16861;52.294;7.760;2023-09-19T14:59:30;6.95;;;2.03;;
30020;SDS011;16861;52.294;7.760;2023-09-19T15:01:58;5.47;;;1.90;;
30020;SDS011;16861;52.294;7.760;2023-09-19T15:04:25;4.80;;;1.75;;
30020;SDS011;16861;52.294;7.760;2023-09-19T15:06:54;7.95;;;2.08;;
30020;SDS011;16861;52.294;7.760;2023-09-19T15:09:21;7.47;;;2.10;;
30020;SDS011;16861;52.294;7.760;2023-09-19T15:11:52;6.53;;;2.03;;
30020;SDS011;16861;52.294;7.760;2023-09-19T15:14:19;7.45;;;1.90;;
30020;SDS011;16861;52.294;7.760;2023-09-19T15:16:48;5.55;;;1.70;;
30020;SDS011;16861;52.294;7.760;2023-09-19T15:19:15;6.30;;;2.17;;
30020;SDS011;16861;52.294;7.760;2023-09-19T15:21:41;4.20;;;1.50;;
30020;SDS011;16861;52.294;7.760;2023-09-19T15:24:08;5.18;;;1.70;;
30020;SDS011;16861;52.294;7.760;2023-09-19T15:26:36;6.75;;;1.52;;
30020;SDS011;16861;52.294;7.760;2023-09-19T15:29:08;6.72;;;1.65;;
30020;SDS011;16861;52.294;7.760;2023-09-19T15:31:35;4.32;;;1.63;;
30020;SDS011;16861;52.294;7.760;2023-09-19T15:34:05;3.30;;;1.33;;
30020;SDS011;16861;52.294;7.760;2023-09-19T15:36:33;13.27;;;1.70;;
30020;SDS011;16861;52.294;7.760;2023-09-19T15:39:00;5.53;;;1.30;;
30020;SDS011;16861;52.294;7.760;2023-09-19T15:41:30;3.88;;;1.42;;
30020;SDS011;16861;52.294;7.760;2023-09-19T15:43:58;6.25;;;1.85;;
30020;SDS011;16861;52.294;7.760;2023-09-19T15:46:27;10.00;;;1.30;;
30020;SDS011;16861;52.294;7.760;2023-09-19T15:48:56;9.00;;;1.80;;
30020;SDS011;16861;52.294;7.760;2023-09-19T15:51:23;3.65;;;1.20;;
30020;SDS011;16861;52.294;7.760;2023-09-19T15:53:51;8.38;;;1.52;;
30020;SDS011;16861;52.294;7.760;2023-09-19T15:56:20;2.92;;;1.20;;
30020;SDS011;16861;52.294;7.760;2023-09-19T15:58:47;4.07;;;1.73;;
30020;SDS011;16861;52.294;7.760;2023-09-19T16:01:15;3.35;;;1.40;;
30020;SDS011;16861;52.294;7.760;2023-09-19T16:03:49;2.55;;;1.17;;
30020;SDS011;16861;52.294;7.760;2023-09-19T16:06:19;4.60;;;1.30;;
30020;SDS011;16861;52.294;7.760;2023-09-19T16:08:47;4.38;;;1.25;;